Arklow Spray — C6VK8 — position and weather

sailwx.info

Track history (hours):
 
Tides and Currents Weather Stations Pressure Air Temp Water Temp Dewpoint Dewpoint Depression Visibility Wind Speed Wind Dir Waves Ship Positions

Arklow Spray

Last reported at 2015-Jan-29 05:30 UTC. Time now 2015-Jan-29 06:20 UTC.
Position N 51°33' W 002°59'.

Length 90 m; draft 4.6 m.

Type: Cargo ship. MMSI: 309914000.

Date/timePositionNaut miles runAvg speedWind from/ knotsBaromVisibWave heightAir tempDewpointWater temp
2015-Jan-29 05:30N 51°33' W 002°59'0 0.0
2015-Jan-29 04:06N 51°33' W 002°59'0 0.0
2015-Jan-29 03:18N 51°33' W 002°59'0 0.0
2015-Jan-29 02:30N 51°33' W 002°59'0 0.0
2015-Jan-29 01:24N 51°33' W 002°59'0 0.0
2015-Jan-28 23:30N 51°33' W 002°59'0 0.0
2015-Jan-28 20:17N 51°33' W 002°59'0 0.0
2015-Jan-28 19:11N 51°33' W 002°59'0 0.0
2015-Jan-28 18:29N 51°33' W 002°59'0 0.0
2015-Jan-28 17:23N 51°33' W 002°59'0 0.0
2015-Jan-28 16:11N 51°33' W 002°59'0 0.0
2015-Jan-28 15:17N 51°33' W 002°59'0 0.1
2015-Jan-28 12:19N 51°33' W 002°59'4 4.6
2015-Jan-28 11:34N 51°30' W 003°00'1010.2
2015-Jan-28 10:33N 51°22' W 003°12'88 9.3
2015-Jan-28 01:06N 50°43' W 005°17'610.5
2015-Jan-28 00:33N 50°39' W 005°24'216 8.3
2015-Jan-26 22:28N 50°35' E 000°17'1112.1
2015-Jan-26 21:33N 50°39' E 000°33'1212.4
2015-Jan-26 20:33N 50°45' E 000°50'3210.6
2015-Jan-26 17:33N 51°05' E 001°29'8 8.1
2015-Jan-26 16:33N 51°11' E 001°39'9 8.9
2015-Jan-26 15:33N 51°19' E 001°44'1110.8
2015-Jan-26 14:33N 51°30' E 001°47'1312.7
2015-Jan-26 13:32N 51°43' E 001°45'1313.4
2015-Jan-26 12:34N 51°56' E 001°45'1413.5
2015-Jan-26 11:33N 52°09' E 001°48'1912.7
2015-Jan-26 10:05N 52°28' E 001°52'611.7
2015-Jan-26 09:33N 52°34' E 001°53'1110.5
2015-Jan-26 08:32N 52°45' E 001°54'10 9.9
2015-Jan-26 07:33N 52°51' E 001°42'9 8.7
2015-Jan-26 06:33N 52°56' E 001°30'9 8.5
2015-Jan-26 05:33N 53°01' E 001°19'43 8.4
2015-Jan-26 00:22N 53°35' E 000°33'7 9.0
2015-Jan-25 23:34N 53°42' E 000°28'1010.2
2015-Jan-25 22:33N 53°50' E 000°19'1111.3
2015-Jan-25 21:33N 53°60' E 000°09'1212.2
2015-Jan-25 20:33N 54°10' W 000°02'1212.4
2015-Jan-25 19:33N 54°21' W 000°14'1312.5
2015-Jan-25 18:33N 54°31' W 000°25'1312.4
2015-Jan-25 17:33N 54°36' W 000°45'1212.0
2015-Jan-25 16:33N 54°40' W 001°05'4 1.8
2015-Jan-25 14:09N 54°36' W 001°09'0 0.0
2015-Jan-25 13:21N 54°36' W 001°09'0 0.0
2015-Jan-25 12:27N 54°36' W 001°09'0 0.0
2015-Jan-25 11:27N 54°36' W 001°09'0 0.0
2015-Jan-25 10:21N 54°36' W 001°09'0 0.0
2015-Jan-25 09:24N 54°36' W 001°09'0 0.0
2015-Jan-24 16:24N 54°36' W 001°09'0 0.0
2015-Jan-24 15:23N 54°36' W 001°09'0 0.0
2015-Jan-24 14:20N 54°36' W 001°09'0 0.0
2015-Jan-24 13:23N 54°36' W 001°09'0 0.0
2015-Jan-24 12:23N 54°36' W 001°09'0 0.0
2015-Jan-24 11:26N 54°36' W 001°09'0 0.0
2015-Jan-24 10:26N 54°36' W 001°09'0 0.0
2015-Jan-24 09:26N 54°36' W 001°09'0 0.0
2015-Jan-24 08:11N 54°36' W 001°09'0 0.0
2015-Jan-24 07:23N 54°36' W 001°09'0 0.0
2015-Jan-24 06:26N 54°36' W 001°09'0 0.0
2015-Jan-23 16:32N 54°36' W 001°09'0 0.0
2015-Jan-23 15:32N 54°36' W 001°09'0 0.0
2015-Jan-23 14:20N 54°36' W 001°09'0 0.0
2015-Jan-23 13:23N 54°36' W 001°09'0 0.0
2015-Jan-23 12:31N 54°36' W 001°09'3 2.8
2015-Jan-23 11:32N 54°39' W 001°09'4 3.6
2015-Jan-23 10:33N 54°42' W 001°05'6 6.0
2015-Jan-23 09:33N 54°39' W 000°55'1511.8
2015-Jan-23 08:16N 54°33' W 000°32'811.0
2015-Jan-23 07:33N 54°27' W 000°22'1010.5
2015-Jan-23 06:33N 54°20' W 000°10'10 9.9
2015-Jan-23 05:33N 54°12' E 000°02'9 9.3
2015-Jan-23 04:33N 54°04' E 000°10'10 9.7
2015-Jan-23 03:33N 53°55' E 000°16'1110.6
2015-Jan-23 02:33N 53°46' E 000°23'1110.9
2015-Jan-23 01:33N 53°35' E 000°18'1111.4
2015-Jan-23 00:33N 53°35' W 000°01'7 7.1
2015-Jan-22 23:33N 53°39' W 000°11'0 0.0
2015-Jan-22 22:33N 53°39' W 000°11'4 4.1
2015-Jan-22 21:34N 53°43' W 000°14'1110.3
2015-Jan-22 20:32N 53°41' W 000°32'7 5.1
2015-Jan-22 19:05N 53°37' W 000°42'  
2015-Jan-20 05:32N 53°43' W 000°40'8 8.3
2015-Jan-20 04:31N 53°42' W 000°26'8 8.5
2015-Jan-20 03:33N 53°40' W 000°12'1110.4
2015-Jan-20 02:32N 53°35' E 000°03'9 9.4
2015-Jan-20 01:32N 53°31' E 000°18'5 5.3
2015-Jan-20 00:33N 53°28' E 000°25'6 6.2
2015-Jan-19 23:32N 53°23' E 000°32'33 8.4
2015-Jan-19 19:33N 53°03' E 001°16'8 8.5
2015-Jan-19 18:33N 52°59' E 001°28'8 8.1
2015-Jan-19 17:33N 52°54' E 001°39'9 9.1
2015-Jan-19 16:32N 52°48' E 001°51'1510.6
2015-Jan-19 15:10N 52°37' E 002°07'711.8
2015-Jan-19 14:33N 52°30' E 002°11'75 9.0
2015-Jan-19 06:11N 51°15' E 002°05'  
Track history (hours):
 
Tides and Currents Weather Stations Pressure Air Temp Water Temp Dewpoint Dewpoint Depression Visibility Wind Speed Wind Dir Waves Ship Positions

Arklow Spray

Last reported at 2015-Jan-29 05:30 UTC. Time now 2015-Jan-29 06:20 UTC.
Position N 51°33' W 002°59'.

Length 90 m; draft 4.6 m.

Type: Cargo ship. MMSI: 309914000.

Date/timePositionNaut miles runAvg speedWind from/ knotsBaromVisibWave heightAir tempDewpointWater temp
2015-Jan-29 05:30N 51°33' W 002°59'0 0.0
2015-Jan-29 04:06N 51°33' W 002°59'0 0.0
2015-Jan-29 03:18N 51°33' W 002°59'0 0.0
2015-Jan-29 02:30N 51°33' W 002°59'0 0.0
2015-Jan-29 01:24N 51°33' W 002°59'0 0.0
2015-Jan-28 23:30N 51°33' W 002°59'0 0.0
2015-Jan-28 20:17N 51°33' W 002°59'0 0.0
2015-Jan-28 19:11N 51°33' W 002°59'0 0.0
2015-Jan-28 18:29N 51°33' W 002°59'0 0.0
2015-Jan-28 17:23N 51°33' W 002°59'0 0.0
2015-Jan-28 16:11N 51°33' W 002°59'0 0.0
2015-Jan-28 15:17N 51°33' W 002°59'0 0.1
2015-Jan-28 12:19N 51°33' W 002°59'4 4.6
2015-Jan-28 11:34N 51°30' W 003°00'1010.2
2015-Jan-28 10:33N 51°22' W 003°12'88 9.3
2015-Jan-28 01:06N 50°43' W 005°17'610.5
2015-Jan-28 00:33N 50°39' W 005°24'216 8.3
2015-Jan-26 22:28N 50°35' E 000°17'1112.1
2015-Jan-26 21:33N 50°39' E 000°33'1212.4
2015-Jan-26 20:33N 50°45' E 000°50'3210.6
2015-Jan-26 17:33N 51°05' E 001°29'8 8.1
2015-Jan-26 16:33N 51°11' E 001°39'9 8.9
2015-Jan-26 15:33N 51°19' E 001°44'1110.8
2015-Jan-26 14:33N 51°30' E 001°47'1312.7
2015-Jan-26 13:32N 51°43' E 001°45'1313.4
2015-Jan-26 12:34N 51°56' E 001°45'1413.5
2015-Jan-26 11:33N 52°09' E 001°48'1912.7
2015-Jan-26 10:05N 52°28' E 001°52'611.7
2015-Jan-26 09:33N 52°34' E 001°53'1110.5
2015-Jan-26 08:32N 52°45' E 001°54'10 9.9
2015-Jan-26 07:33N 52°51' E 001°42'9 8.7
2015-Jan-26 06:33N 52°56' E 001°30'9 8.5
2015-Jan-26 05:33N 53°01' E 001°19'43 8.4
2015-Jan-26 00:22N 53°35' E 000°33'7 9.0
2015-Jan-25 23:34N 53°42' E 000°28'1010.2
2015-Jan-25 22:33N 53°50' E 000°19'1111.3
2015-Jan-25 21:33N 53°60' E 000°09'1212.2
2015-Jan-25 20:33N 54°10' W 000°02'1212.4
2015-Jan-25 19:33N 54°21' W 000°14'1312.5
2015-Jan-25 18:33N 54°31' W 000°25'1312.4
2015-Jan-25 17:33N 54°36' W 000°45'1212.0
2015-Jan-25 16:33N 54°40' W 001°05'4 1.8
2015-Jan-25 14:09N 54°36' W 001°09'0 0.0
2015-Jan-25 13:21N 54°36' W 001°09'0 0.0
2015-Jan-25 12:27N 54°36' W 001°09'0 0.0
2015-Jan-25 11:27N 54°36' W 001°09'0 0.0
2015-Jan-25 10:21N 54°36' W 001°09'0 0.0
2015-Jan-25 09:24N 54°36' W 001°09'0 0.0
2015-Jan-24 16:24N 54°36' W 001°09'0 0.0
2015-Jan-24 15:23N 54°36' W 001°09'0 0.0
2015-Jan-24 14:20N 54°36' W 001°09'0 0.0
2015-Jan-24 13:23N 54°36' W 001°09'0 0.0
2015-Jan-24 12:23N 54°36' W 001°09'0 0.0
2015-Jan-24 11:26N 54°36' W 001°09'0 0.0
2015-Jan-24 10:26N 54°36' W 001°09'0 0.0
2015-Jan-24 09:26N 54°36' W 001°09'0 0.0
2015-Jan-24 08:11N 54°36' W 001°09'0 0.0
2015-Jan-24 07:23N 54°36' W 001°09'0 0.0
2015-Jan-24 06:26N 54°36' W 001°09'0 0.0
2015-Jan-23 16:32N 54°36' W 001°09'0 0.0
2015-Jan-23 15:32N 54°36' W 001°09'0 0.0
2015-Jan-23 14:20N 54°36' W 001°09'0 0.0
2015-Jan-23 13:23N 54°36' W 001°09'0 0.0
2015-Jan-23 12:31N 54°36' W 001°09'3 2.8
2015-Jan-23 11:32N 54°39' W 001°09'4 3.6
2015-Jan-23 10:33N 54°42' W 001°05'6 6.0
2015-Jan-23 09:33N 54°39' W 000°55'1511.8
2015-Jan-23 08:16N 54°33' W 000°32'811.0
2015-Jan-23 07:33N 54°27' W 000°22'1010.5
2015-Jan-23 06:33N 54°20' W 000°10'10 9.9
2015-Jan-23 05:33N 54°12' E 000°02'9 9.3
2015-Jan-23 04:33N 54°04' E 000°10'10 9.7
2015-Jan-23 03:33N 53°55' E 000°16'1110.6
2015-Jan-23 02:33N 53°46' E 000°23'1110.9
2015-Jan-23 01:33N 53°35' E 000°18'1111.4
2015-Jan-23 00:33N 53°35' W 000°01'7 7.1
2015-Jan-22 23:33N 53°39' W 000°11'0 0.0
2015-Jan-22 22:33N 53°39' W 000°11'4 4.1
2015-Jan-22 21:34N 53°43' W 000°14'1110.3
2015-Jan-22 20:32N 53°41' W 000°32'7 5.1
2015-Jan-22 19:05N 53°37' W 000°42'  
2015-Jan-20 05:32N 53°43' W 000°40'8 8.3
2015-Jan-20 04:31N 53°42' W 000°26'8 8.5
2015-Jan-20 03:33N 53°40' W 000°12'1110.4
2015-Jan-20 02:32N 53°35' E 000°03'9 9.4
2015-Jan-20 01:32N 53°31' E 000°18'5 5.3
2015-Jan-20 00:33N 53°28' E 000°25'6 6.2
2015-Jan-19 23:32N 53°23' E 000°32'33 8.4
2015-Jan-19 19:33N 53°03' E 001°16'8 8.5
2015-Jan-19 18:33N 52°59' E 001°28'8 8.1
2015-Jan-19 17:33N 52°54' E 001°39'9 9.1
2015-Jan-19 16:32N 52°48' E 001°51'1510.6
2015-Jan-19 15:10N 52°37' E 002°07'711.8
2015-Jan-19 14:33N 52°30' E 002°11'75 9.0
2015-Jan-19 06:11N 51°15' E 002°05'  

Dump ship's entire track history